Monticello Municipal Ellis Field Monticello US
ICAO: KLLQ
IATA: LLQ
Category: Medium
Scheduled Services: No

Elevation: 270 ft
TransAlt. 18000 ft.

Airport Communications:
ASOS:133.325
MEMPHIS CNTR:135.875
JONESBORO RDO:122.1
CTAF/UNICOM:122.8

KLLQ Zoom In..

If you have problems with the map follow the link
https://www.worldairports.se/pages/airport.php?
ICAO=KLLQ

Runways:

(A) RW 03 length 5020 ft width 75 ft
---- / hdg 31

(B) RW 21 length 5020 ft width 75 ft
---- / hdg 211

Location; KLLQ
Day. 23 / Time. 17.53 Zulu
* Altimeter: 30.24
* Temperature: 18° c. 64.4°f.
* Wind from: 040° Speed 06 kn.
Dewpoint: 09° c.
Visibility: 10 Statute Miles.
Clouds: Clear (automated report).

KLLQ 231753Z AUTO 04006KT 10SM CLR 18/09 A3024 RMK AO2 SLP237 T01830089 10183 20083 58008


Wind From 040°
Speed 06 kn.

 
 
jpsmedia.com for Web Design worldairports.se 2018   terms of use